Time;durP1;ratioP1;P1;durP2;ratioP2;P2;SDS_P1;SDS_P2;PMS_P1;PMS_P2;Temp;Humidity;BMP_temperature;BMP_pressure;BME280_temperature;BME280_humidity;BME280_pressure;Samples;Min_cycle;Max_cycle;Signal;HPM_P1;HPM_P2
2022/12/30 00:01:23;;;;;;;16.50;7.10;;;5.50;99.90;;;4.55;100.00;100735.25;3982203;29;20109;-76
2022/12/30 00:03:24;;;;;;;15.73;6.88;;;5.50;99.90;;;4.57;100.00;100735.97;3982362;29;20023;-76
2022/12/30 00:05:24;;;;;;;9.68;5.45;;;5.50;99.90;;;4.56;100.00;100725.66;3992883;29;20043;-75
2022/12/30 00:07:25;;;;;;;9.43;5.65;;;5.50;99.90;;;4.52;100.00;100721.59;3983060;29;20022;-76
2022/12/30 00:09:26;;;;;;;16.20;6.35;;;5.50;99.90;;;4.50;100.00;100713.06;3981906;29;20414;-76
2022/12/30 00:11:32;;;;;;;17.73;5.68;;;5.50;99.90;;;4.50;100.00;100713.06;3980856;29;20039;-76
2022/12/30 00:34:56;;;;;;;15.40;4.75;;;6.00;99.90;;;5.02;100.00;100690.56;3990007;29;20045;-76
2022/12/30 00:36:58;;;;;;;21.40;5.65;;;6.00;99.90;;;5.09;100.00;100685.69;4005525;29;20059;-75
2022/12/30 00:38:59;;;;;;;16.65;5.93;;;6.00;99.90;;;5.14;100.00;100680.91;3990342;29;20039;-76
2022/12/30 00:43:19;;;;;;;10.82;4.53;;;6.20;99.90;;;5.36;100.00;100683.47;3981478;29;20042;-76
2022/12/30 00:45:23;;;;;;;17.05;5.07;;;6.30;99.90;;;5.41;100.00;100686.53;3982263;29;20035;-76
2022/12/30 00:47:23;;;;;;;13.88;4.70;;;6.40;99.90;;;5.46;100.00;100679.16;3981721;29;20037;-76
2022/12/30 00:56:23;;;;;;;21.23;4.53;;;6.60;99.90;;;5.83;100.00;100649.94;3987162;29;20069;-76
2022/12/30 00:58:24;;;;;;;18.38;5.00;;;6.80;99.90;;;5.89;100.00;100652.91;3981146;29;20411;-76
2022/12/30 01:00:25;;;;;;;14.10;4.78;;;6.80;99.90;;;5.96;100.00;100650.63;3981177;29;20031;-76
2022/12/30 01:02:26;;;;;;;19.90;4.35;;;6.90;99.90;;;6.04;100.00;100642.94;3981245;29;20031;-76
2022/12/30 01:04:28;;;;;;;21.58;5.22;;;7.00;99.90;;;6.12;100.00;100645.78;4001078;29;20091;-76
2022/12/30 01:06:29;;;;;;;21.88;4.13;;;7.00;99.90;;;6.21;100.00;100641.53;3984348;29;20031;-76
2022/12/30 01:08:31;;;;;;;17.92;3.95;;;7.10;99.90;;;6.23;100.00;100631.75;3980960;29;20035;-76
2022/12/30 01:10:32;;;;;;;27.83;5.20;;;7.20;99.90;;;6.33;100.00;100617.72;3980025;29;20070;-75
2022/12/30 01:12:33;;;;;;;18.05;4.15;;;7.20;99.90;;;6.35;100.00;100615.81;3990442;29;20411;-75
2022/12/30 01:14:47;;;;;;;20.88;4.22;;;7.30;99.90;;;6.41;100.00;100610.03;3983259;29;20026;-75
2022/12/30 01:16:47;;;;;;;23.63;3.87;;;7.30;99.90;;;6.41;100.00;100610.03;3970075;29;20044;-75
2022/12/30 01:18:48;;;;;;;20.77;3.90;;;7.40;99.90;;;6.44;100.00;100609.78;3981002;29;20664;-76
2022/12/30 01:20:49;;;;;;;14.65;3.75;;;7.40;99.90;;;6.46;100.00;100600.00;3994993;29;20087;-76
2022/12/30 01:22:51;;;;;;;17.55;4.10;;;7.40;99.90;;;6.51;100.00;100595.16;3980871;29;20119;-76
2022/12/30 01:24:52;;;;;;;16.63;4.03;;;7.50;99.90;;;6.58;100.00;100590.22;3986551;29;20027;-75
2022/12/30 01:26:52;;;;;;;24.02;5.45;;;7.50;99.90;;;6.63;100.00;100590.69;3980995;29;20038;-76
2022/12/30 01:28:53;;;;;;;21.63;4.35;;;7.60;99.90;;;6.72;100.00;100586.41;3980911;29;20034;-75
2022/12/30 01:30:54;;;;;;;22.63;3.97;;;7.60;99.90;;;6.75;100.00;100584.31;3980390;29;20062;-75
2022/12/30 01:32:55;;;;;;;17.98;4.10;;;7.70;99.90;;;6.84;100.00;100583.50;3980897;29;20035;-76
2022/12/30 01:34:57;;;;;;;25.20;4.43;;;7.70;99.90;;;6.87;100.00;100578.00;3983623;29;20066;-76
2022/12/30 01:36:58;;;;;;;13.48;3.70;;;7.80;99.90;;;6.89;100.00;100591.00;3996098;29;20038;-76
2022/12/30 01:38:59;;;;;;;15.60;4.03;;;7.80;99.90;;;6.91;100.00;100589.03;4003044;29;20118;-76
2022/12/30 01:41:00;;;;;;;15.95;3.67;;;7.80;99.90;;;6.94;100.00;100580.91;3980805;29;20061;-75
2022/12/30 01:43:01;;;;;;;18.27;4.10;;;7.90;99.90;;;6.97;100.00;100581.47;3980778;29;20027;-75
2022/12/30 01:45:21;;;;;;;21.30;4.28;;;7.90;99.90;;;7.01;100.00;100582.03;3981211;29;20031;-75
2022/12/30 01:47:24;;;;;;;15.00;3.15;;;7.90;99.90;;;7.03;100.00;100574.84;3994190;29;20034;-76
2022/12/30 01:49:25;;;;;;;14.55;2.75;;;8.00;99.90;;;7.05;100.00;100576.34;3980850;29;20031;-75
2022/12/30 01:51:31;;;;;;;13.68;3.00;;;8.00;99.90;;;7.06;100.00;100569.31;3980695;29;20525;-76
2022/12/30 01:53:45;;;;;;;23.85;4.15;;;8.00;99.90;;;7.04;100.00;100566.84;3980557;29;20063;-76
2022/12/30 01:56:06;;;;;;;26.42;3.45;;;8.00;99.90;;;7.02;100.00;100554.81;3979674;29;20086;-75
2022/12/30 01:58:15;;;;;;;21.08;4.65;;;8.00;99.90;;;7.05;100.00;100557.16;3974648;29;20405;-76
2022/12/30 02:00:16;;;;;;;23.10;4.15;;;8.00;99.90;;;7.04;100.00;100556.38;3981265;29;20023;-76
2022/12/30 02:02:17;;;;;;;14.65;3.55;;;8.00;99.90;;;7.03;100.00;100548.63;3994575;29;20046;-76
2022/12/30 02:04:24;;;;;;;21.83;3.25;;;8.00;99.90;;;7.14;100.00;100545.84;3998788;29;20041;-76
2022/12/30 02:06:44;;;;;;;17.98;3.65;;;8.00;99.90;;;7.09;100.00;100540.19;3997260;29;20059;-76
2022/12/30 02:08:45;;;;;;;18.67;3.08;;;8.00;99.90;;;7.13;100.00;100545.03;3983826;29;20030;-76
2022/12/30 02:10:50;;;;;;;20.00;3.15;;;8.10;99.90;;;7.17;100.00;100537.69;3979492;29;20026;-76
2022/12/30 02:12:51;;;;;;;21.10;3.53;;;8.10;99.90;;;7.17;100.00;100535.91;3994393;29;20038;-76
2022/12/30 02:14:55;;;;;;;16.50;2.85;;;8.10;99.90;;;7.16;100.00;100538.69;3987017;29;20105;-76
2022/12/30 02:17:20;;;;;;;17.15;3.88;;;8.10;99.90;;;7.20;100.00;100542.66;3997074;29;20077;-76
2022/12/30 02:19:33;;;;;;;14.20;2.42;;;8.10;99.90;;;7.21;100.00;100536.47;3983514;29;20058;-76
2022/12/30 02:22:16;;;;;;;10.82;2.55;;;8.10;99.90;;;7.21;100.00;100542.53;3983642;29;20398;-76
2022/12/30 02:24:52;;;;;;;20.90;2.70;;;8.20;99.90;;;7.27;100.00;100535.91;3999056;29;20037;-76
2022/12/30 02:27:14;;;;;;;;;;;8.20;99.90;;;7.29;100.00;100533.16;3975055;29;20608;-76
2022/12/30 02:29:57;;;;;;;23.27;3.03;;;8.20;99.90;;;7.37;100.00;100525.41;3986712;29;20428;-76
2022/12/30 02:32:23;;;;;;;19.75;3.38;;;8.30;99.90;;;7.38;100.00;100527.88;3978589;29;20049;-76
2022/12/30 02:34:35;;;;;;;27.17;4.43;;;8.30;99.90;;;7.44;100.00;100521.22;3997288;29;20034;-76
2022/12/30 02:37:18;;;;;;;25.20;3.22;;;8.40;99.90;;;7.49;100.00;100514.63;3983341;29;20564;-76
2022/12/30 02:39:42;;;;;;;24.15;4.13;;;8.40;99.90;;;7.51;100.00;100506.59;3988732;29;20089;-76
2022/12/30 02:44:47;;;;;;;14.45;2.90;;;8.50;99.90;;;7.55;100.00;100490.44;3989890;29;20080;-76
2022/12/30 02:46:59;;;;;;;26.75;3.65;;;8.50;99.90;;;7.57;100.00;100480.59;3996056;29;20030;-76
2022/12/30 02:49:02;;;;;;;21.38;3.75;;;8.50;99.90;;;7.63;100.00;100480.03;3996338;29;20437;-76
2022/12/30 02:53:29;;;;;;;18.67;3.38;;;8.60;99.90;;;7.69;100.00;100474.22;3995056;29;20062;-76
2022/12/30 02:55:30;;;;;;;18.17;3.17;;;8.60;99.90;;;7.72;100.00;100462.59;3994502;29;20063;-76
2022/12/30 02:57:34;;;;;;;19.52;3.58;;;8.70;99.90;;;7.75;100.00;100462.28;3983075;29;20471;-76
2022/12/30 03:05:28;;;;;;;17.80;4.07;;;8.70;99.90;;;7.85;100.00;100430.75;3989182;29;20107;-76
2022/12/30 03:08:04;;;;;;;15.02;3.33;;;8.80;99.90;;;7.84;100.00;100421.22;3974960;29;20034;-76
2022/12/30 03:13:21;;;;;;;19.10;4.68;;;8.80;99.90;;;7.88;100.00;100414.69;3981560;29;20510;-76
2022/12/30 03:15:32;;;;;;;28.38;4.28;;;8.80;99.90;;;7.91;100.00;100414.41;3996685;29;20031;-76
2022/12/30 03:17:37;;;;;;;22.98;3.65;;;8.80;99.90;;;7.91;100.00;100404.75;3976047;29;20523;-76
2022/12/30 03:19:44;;;;;;;22.60;3.03;;;8.80;99.90;;;7.93;100.00;100396.69;3981442;29;20039;-76
2022/12/30 03:21:47;;;;;;;18.88;3.10;;;8.80;99.90;;;7.94;100.00;100387.84;3981582;29;20118;-76
2022/12/30 03:28:43;;;;;;;18.95;4.70;;;8.90;99.90;;;8.01;100.00;100362.63;3982535;29;20038;-76
2022/12/30 03:30:54;;;;;;;27.75;4.28;;;8.90;99.90;;;8.02;100.00;100359.03;3981051;29;20051;-76
2022/12/30 03:32:55;;;;;;;17.90;3.38;;;8.90;99.90;;;8.05;100.00;100348.25;3981475;29;20118;-77
2022/12/30 03:34:56;;;;;;;26.65;3.40;;;9.00;99.90;;;8.11;100.00;100345.00;3982735;29;20509;-76
2022/12/30 03:37:23;;;;;;;22.02;2.97;;;9.00;99.90;;;8.10;100.00;100336.31;3982468;29;20038;-76
2022/12/30 03:39:35;;;;;;;28.15;3.85;;;9.00;99.90;;;8.15;100.00;100327.97;3993634;29;20042;-76
2022/12/30 03:41:37;;;;;;;19.30;3.80;;;9.00;99.90;;;8.10;100.00;100317.91;3981401;29;20033;-77
2022/12/30 03:43:40;;;;;;;23.05;3.42;;;9.00;99.90;;;8.13;100.00;100311.53;3982453;29;20031;-76
2022/12/30 03:45:41;;;;;;;25.77;3.53;;;9.10;99.90;;;8.18;100.00;100306.66;3992217;29;20109;-77
2022/12/30 03:47:42;;;;;;;16.73;3.10;;;9.10;99.90;;;8.23;100.00;100314.91;3982432;29;20103;-77
2022/12/30 03:49:43;;;;;;;17.02;2.47;;;9.10;99.90;;;8.21;100.00;100306.38;3982409;29;20030;-76
2022/12/30 03:51:45;;;;;;;28.52;3.60;;;9.10;99.90;;;8.24;100.00;100303.44;3996229;29;20129;-77
2022/12/30 03:53:45;;;;;;;22.80;3.45;;;9.20;99.90;;;8.25;100.00;100300.63;3982128;29;20054;-76
2022/12/30 03:55:46;;;;;;;15.15;2.50;;;9.20;99.90;;;8.32;100.00;100298.28;3991458;29;20045;-76
2022/12/30 03:57:47;;;;;;;20.65;4.38;;;9.20;99.90;;;8.31;100.00;100284.31;3982183;29;20064;-76
2022/12/30 03:59:48;;;;;;;20.90;3.15;;;9.20;99.90;;;8.31;100.00;100284.31;3982065;29;20027;-76
2022/12/30 04:01:49;;;;;;;18.55;2.78;;;9.20;99.90;;;8.36;100.00;100270.72;3982140;29;20113;-76
2022/12/30 04:03:50;;;;;;;21.23;2.97;;;9.30;99.90;;;8.39;100.00;100273.03;3982164;29;20092;-76
2022/12/30 04:05:55;;;;;;;16.52;4.78;;;9.30;99.90;;;8.40;100.00;100258.91;3988911;29;20054;-76
2022/12/30 04:07:56;;;;;;;18.90;2.92;;;9.30;99.90;;;8.44;100.00;100256.78;3995893;29;20084;-76
2022/12/30 04:09:56;;;;;;;20.90;2.50;;;9.30;99.90;;;8.47;100.00;100243.34;3981857;29;20027;-76
2022/12/30 04:11:57;;;;;;;17.45;2.50;;;9.40;99.90;;;8.49;100.00;100238.75;3982187;29;20030;-76
2022/12/30 04:13:58;;;;;;;18.20;2.67;;;9.40;99.90;;;8.55;100.00;100217.09;3981891;29;20495;-76
2022/12/30 04:15:59;;;;;;;14.93;3.22;;;9.40;99.90;;;8.52;100.00;100209.53;3983985;29;20064;-76
2022/12/30 04:18:00;;;;;;;23.08;4.43;;;9.40;99.90;;;8.53;100.00;100206.75;3995315;29;20480;-76
2022/12/30 04:20:01;;;;;;;18.73;3.28;;;9.40;99.90;;;8.51;100.00;100192.94;3982043;29;20046;-76
2022/12/30 04:22:02;;;;;;;16.00;2.67;;;9.50;99.90;;;8.56;100.00;100188.03;3981918;29;20031;-76
2022/12/30 04:24:03;;;;;;;16.90;2.58;;;9.50;99.90;;;8.61;100.00;100175.25;3995817;29;20471;-76
2022/12/30 04:26:04;;;;;;;21.38;2.70;;;9.50;99.90;;;8.63;100.00;100165.38;3984164;29;20095;-76
2022/12/30 04:28:05;;;;;;;17.92;3.42;;;9.50;99.90;;;8.70;100.00;100163.78;4001079;29;20030;-76
2022/12/30 04:30:07;;;;;;;23.38;3.97;;;9.50;99.90;;;8.63;100.00;100154.06;3990631;29;20035;-76
2022/12/30 04:32:08;;;;;;;14.50;2.45;;;9.60;99.90;;;8.67;100.00;100137.81;3981495;29;20527;-76
2022/12/30 04:34:12;;;;;;;14.82;2.28;;;9.60;99.90;;;8.71;100.00;100144.41;3987401;29;20037;-76
2022/12/30 04:36:12;;;;;;;13.77;2.70;;;9.60;99.90;;;8.73;100.00;100134.53;3981758;29;20063;-76
2022/12/30 04:38:13;;;;;;;13.88;2.80;;;9.60;99.90;;;8.73;100.00;100124.03;3981623;29;20039;-76
2022/12/30 04:40:15;;;;;;;13.48;2.47;;;9.60;99.90;;;8.83;100.00;100119.47;3986910;29;20505;-76
2022/12/30 04:42:17;;;;;;;12.55;2.58;;;9.60;99.90;;;8.79;100.00;100123.38;3981566;29;20034;-76
2022/12/30 04:44:17;;;;;;;11.43;2.40;;;9.70;99.90;;;8.84;100.00;100110.56;3985201;29;20027;-76
2022/12/30 04:46:18;;;;;;;15.15;3.25;;;9.70;99.90;;;8.83;100.00;100110.75;3980597;29;20410;-76
2022/12/30 04:48:19;;;;;;;11.27;2.13;;;9.70;99.90;;;8.87;100.00;100097.09;3979293;29;20035;-76
2022/12/30 04:50:20;;;;;;;7.80;1.83;;;9.70;99.90;;;8.94;100.00;100097.28;3980281;29;20051;-76
2022/12/30 04:52:21;;;;;;;10.57;2.78;;;9.80;99.90;;;8.95;100.00;100096.31;3981423;29;20042;-76
2022/12/30 04:54:22;;;;;;;12.38;2.22;;;9.80;99.90;;;9.01;100.00;100090.41;3983217;29;20039;-76
2022/12/30 04:56:23;;;;;;;19.13;2.95;;;9.80;99.90;;;9.04;100.00;100081.38;3981512;29;20391;-76
2022/12/30 04:58:25;;;;;;;8.13;1.75;;;9.90;99.90;;;9.09;100.00;100094.84;3981301;29;20091;-76
2022/12/30 05:00:25;;;;;;;7.63;1.70;;;9.90;99.90;;;9.01;100.00;100077.25;3994823;29;20495;-76
2022/12/30 05:02:26;;;;;;;12.70;3.75;;;9.90;99.90;;;9.01;100.00;100050.13;3992036;29;20030;-76
2022/12/30 05:04:27;;;;;;;10.85;2.45;;;9.90;99.90;;;9.10;100.00;100043.88;3991172;29;20050;-76
2022/12/30 05:06:28;;;;;;;15.57;2.90;;;9.90;99.90;;;9.12;100.00;100045.38;3984893;29;20030;-76
2022/12/30 05:08:29;;;;;;;11.30;2.20;;;10.00;99.90;;;9.13;100.00;100033.88;3991929;29;20064;-76
2022/12/30 05:10:33;;;;;;;8.50;2.15;;;10.00;99.90;;;9.12;100.00;100024.31;4005180;29;20038;-76
2022/12/30 05:12:34;;;;;;;9.68;1.75;;;10.00;99.90;;;9.20;100.00;100037.47;3980038;29;20510;-76
2022/12/30 05:14:35;;;;;;;11.18;2.08;;;10.00;99.90;;;9.18;100.00;100033.34;3988235;29;20125;-76
2022/12/30 05:16:36;;;;;;;11.90;2.00;;;10.10;99.90;;;9.21;100.00;100011.97;3981841;29;20567;-75
2022/12/30 05:18:36;;;;;;;6.70;1.77;;;10.00;99.90;;;9.20;100.00;100007.72;3981038;29;20040;-76
2022/12/30 05:20:37;;;;;;;5.75;1.77;;;10.10;99.90;;;9.21;100.00;100012.81;3981073;29;20038;-76
2022/12/30 05:22:38;;;;;;;7.47;1.70;;;10.10;99.90;;;9.20;100.00;100015.63;3981002;29;20055;-76
2022/12/30 05:26:59;;;;;;;7.50;1.95;;;10.10;99.90;;;9.36;100.00;100012.97;3980958;29;20042;-76
2022/12/30 05:29:00;;;;;;;8.52;3.22;;;10.20;99.90;;;9.33;100.00;100022.00;3980807;29;20030;-76
2022/12/30 05:31:00;;;;;;;7.90;1.80;;;10.20;99.90;;;9.39;100.00;100018.72;3980729;29;20066;-76
2022/12/30 05:33:01;;;;;;;9.90;1.98;;;10.20;99.90;;;9.53;100.00;100013.78;3990500;29;20034;-76
2022/12/30 05:35:03;;;;;;;5.22;1.13;;;10.30;99.90;;;9.54;100.00;100016.22;3986542;29;20121;-76
2022/12/30 05:37:04;;;;;;;10.18;1.50;;;10.40;99.90;;;9.60;100.00;99999.75;3980800;29;20039;-76
2022/12/30 05:39:05;;;;;;;8.02;1.40;;;10.40;99.90;;;9.67;100.00;99994.66;3987989;29;20051;-76
2022/12/30 05:41:07;;;;;;;9.52;2.03;;;10.50;99.90;;;9.65;100.00;99976.38;3968823;29;20087;-76
2022/12/30 05:43:08;;;;;;;9.68;1.40;;;10.50;99.90;;;9.71;100.00;99994.13;3994871;29;20030;-76
2022/12/30 05:45:10;;;;;;;7.32;1.25;;;10.50;99.90;;;9.78;100.00;99995.13;3983648;29;20056;-76
2022/12/30 05:47:11;;;;;;;3.80;1.05;;;10.60;99.90;;;9.87;100.00;99988.84;3980645;29;20027;-76
2022/12/30 05:49:11;;;;;;;7.00;1.83;;;10.60;99.90;;;9.87;100.00;99980.94;3980709;29;20031;-76
2022/12/30 05:51:13;;;;;;;11.82;1.35;;;10.60;99.90;;;9.84;100.00;99978.63;3980765;29;20073;-76
2022/12/30 05:53:14;;;;;;;10.18;2.15;;;10.70;99.90;;;9.90;100.00;99999.03;3994800;29;20030;-76
2022/12/30 05:55:15;;;;;;;9.65;1.38;;;10.70;99.90;;;9.92;100.00;100001.47;3981727;29;20034;-76
2022/12/30 05:57:16;;;;;;;8.48;1.48;;;10.70;99.90;;;10.02;100.00;99989.75;3983070;29;20035;-76
2022/12/30 05:59:16;;;;;;;5.20;0.98;;;10.80;99.90;;;10.00;100.00;99989.09;3989725;29;20491;-76
2022/12/30 06:01:17;;;;;;;3.97;1.27;;;10.80;99.90;;;10.03;100.00;99980.84;3980635;29;20060;-76
2022/12/30 06:03:18;;;;;;;4.38;0.80;;;10.80;99.90;;;10.06;100.00;99981.53;3980606;29;20458;-76
2022/12/30 06:05:19;;;;;;;6.43;1.10;;;10.80;99.90;;;10.09;100.00;99975.91;3991423;29;20042;-76
2022/12/30 06:07:20;;;;;;;7.65;1.33;;;10.80;99.90;;;10.07;100.00;99986.59;3980860;29;20034;-76
2022/12/30 06:09:21;;;;;;;8.60;1.60;;;10.90;99.90;;;10.16;100.00;99975.06;3980564;29;20034;-76
2022/12/30 06:11:22;;;;;;;5.68;1.10;;;10.90;99.90;;;10.10;100.00;99988.06;3979433;29;20065;-76
2022/12/30 06:13:23;;;;;;;5.25;0.93;;;10.90;99.90;;;10.09;100.00;99986.44;3978035;29;20035;-76
2022/12/30 06:15:23;;;;;;;8.68;1.27;;;10.90;99.90;;;10.12;100.00;99967.66;3991152;29;20022;-76
2022/12/30 06:17:24;;;;;;;4.63;0.80;;;10.90;99.90;;;10.12;100.00;99965.84;4000826;29;20041;-76
2022/12/30 06:19:25;;;;;;;3.70;1.10;;;10.90;99.90;;;10.18;100.00;99953.84;3975955;29;20153;-76
2022/12/30 06:21:26;;;;;;;4.10;0.80;;;11.00;99.90;;;10.13;100.00;99948.19;3982625;29;20066;-76
2022/12/30 06:23:27;;;;;;;3.13;0.60;;;11.00;99.90;;;10.15;100.00;99930.47;3980522;29;20093;-76
2022/12/30 06:25:28;;;;;;;9.05;1.17;;;11.00;99.90;;;10.25;100.00;99926.59;3991596;29;20449;-76
2022/12/30 06:27:29;;;;;;;4.22;1.13;;;11.00;99.90;;;10.20;100.00;99917.56;3976781;29;20580;-76
2022/12/30 06:29:30;;;;;;;6.20;1.05;;;11.00;99.90;;;10.21;100.00;99914.78;3980159;29;20066;-76
2022/12/30 06:31:31;;;;;;;4.03;0.90;;;11.00;99.90;;;10.26;100.00;99911.59;3980284;29;20082;-76
2022/12/30 06:33:31;;;;;;;5.65;1.33;;;11.10;99.90;;;10.30;100.00;99916.38;3979252;29;20064;-76
2022/12/30 06:35:33;;;;;;;6.45;0.82;;;11.10;99.90;;;10.25;100.00;99916.06;3989370;29;20042;-76
2022/12/30 06:37:34;;;;;;;6.70;0.98;;;11.10;99.90;;;10.35;100.00;99923.75;3981265;29;20031;-76
2022/12/30 06:39:35;;;;;;;5.47;0.90;;;11.10;99.90;;;10.36;100.00;99904.31;3986434;29;20062;-76
2022/12/30 06:41:36;;;;;;;3.42;0.80;;;11.10;99.90;;;10.39;100.00;99914.50;3980400;29;20114;-75
2022/12/30 06:43:36;;;;;;;5.07;0.90;;;11.20;99.90;;;10.42;100.00;99924.69;3991120;29;20541;-76
2022/12/30 06:45:37;;;;;;;3.00;0.57;;;11.20;99.90;;;10.41;100.00;99928.31;3983179;29;20038;-75
2022/12/30 06:47:38;;;;;;;4.72;1.30;;;11.20;99.90;;;10.49;100.00;99915.91;3980416;29;20507;-75
2022/12/30 06:49:39;;;;;;;4.13;0.95;;;11.20;99.90;;;10.50;100.00;99901.72;3980303;29;20042;-75
2022/12/30 06:51:40;;;;;;;3.67;1.85;;;11.30;99.90;;;10.57;100.00;99909.75;3994164;29;20113;-75
2022/12/30 06:53:41;;;;;;;3.63;0.60;;;11.40;99.90;;;10.57;100.00;99907.13;3979318;29;20597;-75
2022/12/30 06:55:42;;;;;;;4.43;0.70;;;11.40;99.90;;;10.56;100.00;99905.47;3988939;29;20491;-75
2022/12/30 06:57:43;;;;;;;2.83;0.47;;;11.40;99.90;;;10.54;100.00;99902.19;3980447;29;20045;-75
2022/12/30 06:59:43;;;;;;;4.43;0.73;;;11.40;99.90;;;10.64;100.00;99904.56;3980027;29;20087;-76
2022/12/30 07:01:44;;;;;;;4.80;0.70;;;11.40;99.90;;;10.67;100.00;99915.59;3994714;29;20095;-75
2022/12/30 07:03:45;;;;;;;3.53;0.70;;;11.40;99.90;;;10.66;100.00;99898.16;3981956;29;20546;-75
2022/12/30 07:05:46;;;;;;;4.05;1.05;;;11.50;99.90;;;10.72;100.00;99907.97;3997179;29;20038;-76
2022/12/30 07:07:47;;;;;;;5.65;1.05;;;11.50;99.90;;;10.81;100.00;99920.09;3988111;29;20089;-76
2022/12/30 07:09:48;;;;;;;6.97;0.85;;;11.60;99.90;;;10.82;100.00;99924.38;3996571;29;20066;-76
2022/12/30 07:11:49;;;;;;;6.57;1.60;;;11.60;99.90;;;10.88;100.00;99897.28;3982910;29;20030;-76
2022/12/30 07:13:50;;;;;;;8.40;1.00;;;11.60;99.90;;;10.93;100.00;99908.13;3996442;29;20068;-75
2022/12/30 07:15:51;;;;;;;10.80;1.50;;;11.60;99.90;;;11.09;100.00;99909.78;3991039;29;20038;-75
2022/12/30 07:17:52;;;;;;;12.27;1.45;;;11.80;99.90;;;10.99;100.00;99904.78;3985994;29;20050;-75
2022/12/30 07:19:52;;;;;;;5.35;1.23;;;11.80;99.90;;;11.10;100.00;99899.06;3982714;29;20041;-76
2022/12/30 07:21:54;;;;;;;7.95;1.15;;;11.80;99.90;;;11.11;100.00;99874.31;3982918;29;20037;-76
2022/12/30 07:23:54;;;;;;;7.28;0.85;;;11.80;99.90;;;11.10;100.00;99893.81;3982694;29;20102;-76
2022/12/30 07:25:55;;;;;;;6.68;0.80;;;11.80;99.90;;;11.16;100.00;99900.19;3985455;29;20552;-76
2022/12/30 07:27:59;;;;;;;8.27;1.08;;;11.90;99.90;;;11.15;100.00;99909.06;3982704;29;20027;-76
2022/12/30 07:30:00;;;;;;;7.45;1.77;;;11.90;99.90;;;11.22;100.00;99896.00;4011398;29;20038;-76
2022/12/30 07:32:01;;;;;;;7.30;1.48;;;12.00;99.90;;;11.27;100.00;99909.47;3982410;29;20601;-76
2022/12/30 07:34:02;;;;;;;7.25;1.50;;;12.00;99.90;;;11.31;100.00;99905.47;3982535;29;20064;-76
2022/12/30 07:36:03;;;;;;;4.43;0.77;;;12.10;99.90;;;11.30;100.00;99888.81;3985177;29;20030;-76
2022/12/30 07:38:04;;;;;;;6.53;1.15;;;12.10;99.90;;;11.38;100.00;99901.91;3996233;29;20072;-75
2022/12/30 07:40:06;;;;;;;5.00;0.90;;;12.10;99.90;;;11.40;100.00;99893.81;3988776;29;20509;-76
2022/12/30 07:42:07;;;;;;;6.65;1.10;;;12.10;99.90;;;11.38;100.00;99890.56;3982349;29;20031;-76
2022/12/30 07:44:08;;;;;;;7.68;1.35;;;12.10;99.90;;;11.38;100.00;99895.84;3995877;29;20086;-76
2022/12/30 07:46:09;;;;;;;5.50;1.40;;;12.10;99.90;;;11.43;100.00;99901.38;3985204;29;20026;-75
2022/12/30 07:48:10;;;;;;;2.67;0.63;;;12.20;99.90;;;11.44;100.00;99900.38;3982384;29;20031;-75
2022/12/30 07:50:11;;;;;;;7.72;1.20;;;12.20;99.90;;;11.44;100.00;99877.41;3979250;29;20030;-76
2022/12/30 07:52:12;;;;;;;5.95;1.40;;;12.20;99.90;;;11.51;100.00;99883.63;3982323;29;20118;-76
2022/12/30 07:54:13;;;;;;;10.20;1.30;;;12.20;99.90;;;11.54;100.00;99885.06;3983637;29;20469;-76
2022/12/30 07:56:14;;;;;;;6.43;1.02;;;12.30;99.90;;;11.50;100.00;99874.03;3985666;29;20019;-75
2022/12/30 07:58:15;;;;;;;11.38;1.60;;;12.30;99.90;;;11.54;100.00;99885.06;3982119;29;20035;-76
2022/12/30 08:00:16;;;;;;;5.40;0.63;;;12.30;99.90;;;11.55;100.00;99879.63;3981935;29;20073;-76
2022/12/30 08:02:17;;;;;;;4.47;0.93;;;12.30;99.90;;;11.64;100.00;99885.63;3996094;29;20051;-76
2022/12/30 08:04:18;;;;;;;5.18;1.23;;;12.40;99.90;;;11.69;100.00;99883.22;3982122;29;20038;-75
2022/12/30 08:06:19;;;;;;;8.77;1.10;;;12.40;99.90;;;11.72;100.00;99890.81;4005911;29;20552;-76
2022/12/30 08:08:20;;;;;;;7.90;1.40;;;12.40;99.90;;;11.78;100.00;99894.56;3993977;29;20029;-76
2022/12/30 08:10:21;;;;;;;3.17;0.98;;;12.50;99.90;;;11.78;100.00;99887.44;3982102;29;20402;-75
2022/12/30 08:12:22;;;;;;;5.72;0.93;;;12.50;99.90;;;11.83;100.00;99906.19;3981990;29;20039;-76
2022/12/30 08:14:23;;;;;;;5.63;0.82;;;12.60;99.90;;;11.86;100.00;99892.63;3980851;29;20092;-76
2022/12/30 08:16:24;;;;;;;6.32;1.00;;;12.60;99.90;;;11.90;100.00;99912.41;4001828;29;20029;-76
2022/12/30 08:18:26;;;;;;;11.20;1.60;;;12.60;99.90;;;11.96;100.00;99906.38;3991707;29;20451;-76
2022/12/30 08:20:27;;;;;;;6.82;1.00;;;12.70;99.90;;;12.00;100.00;99898.91;3980772;29;20106;-76
2022/12/30 08:22:27;;;;;;;7.13;1.38;;;12.70;99.90;;;12.13;100.00;99907.78;3981783;29;20054;-76
2022/12/30 08:24:28;;;;;;;6.13;1.42;;;12.80;99.90;;;12.10;100.00;99915.25;3980499;29;20027;-76
2022/12/30 08:26:29;;;;;;;5.10;1.20;;;12.80;99.90;;;12.14;100.00;99904.16;3989602;29;20114;-76
2022/12/30 08:28:30;;;;;;;7.43;1.58;;;12.90;99.90;;;12.11;100.00;99907.16;3990473;29;20435;-75
2022/12/30 08:30:31;;;;;;;6.70;1.15;;;12.90;99.90;;;12.27;100.00;99914.06;3995275;29;20140;-75
2022/12/30 08:32:32;;;;;;;7.55;1.33;;;12.90;99.90;;;12.32;100.00;99913.47;3981624;29;20108;-75
2022/12/30 08:34:33;;;;;;;10.15;1.70;;;13.00;99.90;;;12.35;100.00;99921.03;3981859;29;20449;-76
2022/12/30 08:36:34;;;;;;;10.95;1.30;;;13.00;99.90;;;12.45;100.00;99924.22;3987804;29;20038;-75
2022/12/30 08:38:43;;;;;;;11.35;2.38;;;13.10;99.90;;;12.52;100.00;99923.25;3990770;29;20073;-75
2022/12/30 08:40:44;;;;;;;13.10;2.65;;;13.10;99.90;;;12.49;100.00;99918.34;3997131;29;20050;-76
2022/12/30 08:42:45;;;;;;;19.85;2.95;;;13.20;99.90;;;12.53;100.00;99919.63;3980647;29;20038;-75
2022/12/30 08:44:46;;;;;;;19.75;2.72;;;13.20;99.90;;;12.47;100.00;99906.31;3981436;29;20031;-75
2022/12/30 08:46:47;;;;;;;20.75;3.33;;;13.20;99.90;;;12.53;100.00;99908.22;3983499;29;20043;-75
2022/12/30 08:48:47;;;;;;;28.92;4.22;;;13.20;99.90;;;12.63;100.00;99903.44;3983797;29;20031;-76
2022/12/30 08:50:48;;;;;;;23.90;3.50;;;13.30;99.90;;;12.63;100.00;99911.38;3981745;29;20039;-75
2022/12/30 08:52:49;;;;;;;23.73;4.30;;;13.30;99.90;;;12.70;100.00;99907.75;3981555;29;20034;-76
2022/12/30 08:54:50;;;;;;;28.20;3.90;;;13.40;99.90;;;12.68;100.00;99901.84;3981422;29;20398;-76
2022/12/30 08:56:51;;;;;;;28.73;5.05;;;13.40;99.90;;;12.66;100.00;99901.22;4000404;29;20034;-76
2022/12/30 08:58:52;;;;;;;18.70;4.47;;;13.40;99.90;;;12.77;100.00;99899.88;3980943;29;20472;-76
2022/12/30 09:00:53;;;;;;;32.70;5.88;;;13.40;99.90;;;12.80;100.00;99909.28;3980320;29;20058;-76
2022/12/30 09:02:54;;;;;;;30.90;6.13;;;13.40;99.90;;;12.75;100.00;99868.31;3981292;29;20059;-76
2022/12/30 09:04:55;;;;;;;35.58;5.32;;;13.50;99.90;;;12.75;100.00;99881.53;3981175;29;20027;-76
2022/12/30 09:06:56;;;;;;;32.47;5.82;;;13.40;99.90;;;12.75;100.00;99883.41;3990794;29;20039;-76
2022/12/30 09:08:58;;;;;;;32.25;5.57;;;13.50;99.90;;;12.82;100.00;99876.31;3988712;29;20038;-76
2022/12/30 09:11:06;;;;;;;33.85;6.85;;;13.50;99.90;;;12.78;100.00;99890.94;3980058;29;20039;-75
2022/12/30 09:13:07;;;;;;;36.03;5.93;;;13.50;99.90;;;12.84;100.00;99879.59;3994916;29;20042;-76
2022/12/30 09:15:08;;;;;;;38.75;6.53;;;13.50;99.90;;;12.80;100.00;99888.94;3981045;29;20415;-75
2022/12/30 09:17:09;;;;;;;33.17;6.25;;;13.50;99.90;;;12.84;100.00;99884.91;4003838;29;20078;-75
2022/12/30 09:19:10;;;;;;;35.83;6.88;;;13.50;99.90;;;12.88;100.00;99878.19;3975168;29;20031;-75
2022/12/30 09:21:11;;;;;;;38.72;7.15;;;13.50;99.90;;;12.96;100.00;99893.94;3979659;29;20050;-75
2022/12/30 09:23:13;;;;;;;28.98;6.35;;;13.60;99.90;;;12.87;100.00;99879.22;4010146;29;20035;-76
2022/12/30 09:25:13;;;;;;;32.53;5.72;;;13.60;99.90;;;12.93;100.00;99883.72;3981242;29;20041;-77